createdAt,value
2018-03-24T00:00:10.214Z,0
2018-03-24T00:00:50.743Z,0
2018-03-24T00:01:31.338Z,0
2018-03-24T00:02:11.994Z,0
2018-03-24T00:02:52.728Z,0
2018-03-24T00:03:33.399Z,0
2018-03-24T00:04:14.332Z,0
2018-03-24T00:04:54.920Z,0
2018-03-24T00:05:35.700Z,0
2018-03-24T00:06:16.304Z,0
2018-03-24T00:06:56.876Z,0
2018-03-24T00:07:37.525Z,0
2018-03-24T00:08:18.076Z,0
2018-03-24T00:08:58.646Z,0
2018-03-24T00:09:39.214Z,0
2018-03-24T00:10:19.964Z,0
2018-03-24T00:12:59.359Z,0
2018-03-24T00:13:39.963Z,0
2018-03-24T00:14:20.528Z,0
2018-03-24T00:15:01.124Z,0
2018-03-24T00:15:41.696Z,0
2018-03-24T00:16:22.267Z,0
2018-03-24T00:17:02.845Z,0
2018-03-24T00:17:43.478Z,0
2018-03-24T00:18:24.035Z,0
2018-03-24T00:19:04.633Z,0
2018-03-24T00:19:45.256Z,0
2018-03-24T00:20:25.887Z,0
2018-03-24T00:21:06.492Z,0
2018-03-24T00:21:47.127Z,0
2018-03-24T00:22:27.730Z,0
2018-03-24T00:23:08.314Z,0
2018-03-24T00:23:48.910Z,0
2018-03-24T00:24:29.473Z,0
2018-03-24T00:25:10.717Z,0
2018-03-24T00:25:51.287Z,0
2018-03-24T00:26:31.847Z,0
2018-03-24T00:27:12.460Z,0
2018-03-24T00:27:52.978Z,0
2018-03-24T00:28:33.537Z,0
2018-03-24T00:29:14.151Z,0
2018-03-24T00:29:54.713Z,0
2018-03-24T00:30:35.404Z,0
2018-03-24T00:31:15.962Z,0
2018-03-24T00:31:56.575Z,0
2018-03-24T00:32:37.200Z,0
2018-03-24T00:33:17.693Z,0
2018-03-24T00:33:58.324Z,0
2018-03-24T00:34:38.912Z,0
2018-03-24T00:35:19.462Z,0
2018-03-24T00:36:00.062Z,0
2018-03-24T00:36:40.625Z,0
2018-03-24T00:37:21.232Z,0
2018-03-24T00:38:01.785Z,0
2018-03-24T00:38:42.364Z,0
2018-03-24T00:39:22.933Z,0
2018-03-24T00:40:03.494Z,0
2018-03-24T00:40:44.064Z,0
2018-03-24T00:41:24.600Z,0
2018-03-24T00:42:05.173Z,0
2018-03-24T00:42:45.840Z,0
2018-03-24T00:43:26.386Z,0
2018-03-24T00:44:06.937Z,0
2018-03-24T00:44:47.496Z,0
2018-03-24T00:45:28.082Z,0
2018-03-24T00:46:08.648Z,0
2018-03-24T00:46:49.205Z,0
2018-03-24T00:47:29.752Z,0
2018-03-24T00:48:10.336Z,0
2018-03-24T00:48:50.888Z,0
2018-03-24T00:49:31.441Z,0
2018-03-24T00:50:12.000Z,0
2018-03-24T00:50:52.584Z,0
2018-03-24T00:51:33.135Z,0
2018-03-24T00:52:13.713Z,0
2018-03-24T00:52:54.279Z,0
2018-03-24T00:53:34.841Z,0
2018-03-24T00:54:15.400Z,0
2018-03-24T00:54:55.946Z,0
2018-03-24T00:55:36.507Z,0
2018-03-24T00:56:17.072Z,0
2018-03-24T00:56:57.618Z,0
2018-03-24T00:57:38.217Z,0
2018-03-24T00:58:18.806Z,0
2018-03-24T00:58:59.401Z,0
2018-03-24T00:59:39.988Z,0
2018-03-24T01:00:20.576Z,0
2018-03-24T01:01:01.146Z,0
2018-03-24T01:01:41.727Z,0
2018-03-24T01:02:22.346Z,0
2018-03-24T01:03:02.909Z,0
2018-03-24T01:03:43.461Z,0
2018-03-24T01:04:24.098Z,0
2018-03-24T01:05:04.656Z,0
2018-03-24T01:05:45.312Z,0
2018-03-24T01:06:25.837Z,0
2018-03-24T01:07:06.389Z,0
2018-03-24T01:07:46.946Z,0
2018-03-24T01:08:27.565Z,0
2018-03-24T01:09:08.113Z,0
2018-03-24T01:09:48.678Z,0
2018-03-24T01:10:29.229Z,0
2018-03-24T01:11:09.777Z,0
2018-03-24T01:11:50.325Z,0
2018-03-24T01:12:30.897Z,0
2018-03-24T01:13:11.445Z,0
2018-03-24T01:13:52.012Z,0
2018-03-24T01:14:32.577Z,0
2018-03-24T01:15:13.133Z,0
2018-03-24T01:15:53.691Z,0
2018-03-24T01:16:34.246Z,0
2018-03-24T01:17:14.798Z,0
2018-03-24T01:17:55.383Z,0
2018-03-24T01:18:35.921Z,0
2018-03-24T01:19:16.553Z,0
2018-03-24T01:19:57.111Z,0
2018-03-24T01:20:37.665Z,0
2018-03-24T01:21:18.231Z,0
2018-03-24T01:21:58.786Z,0
2018-03-24T01:22:39.337Z,0
2018-03-24T01:23:19.898Z,0
2018-03-24T01:24:00.476Z,0
2018-03-24T01:24:41.066Z,0
2018-03-24T01:25:21.620Z,0
2018-03-24T01:26:02.176Z,0
2018-03-24T01:26:42.736Z,0
2018-03-24T01:27:23.292Z,0
2018-03-24T01:28:03.892Z,0
2018-03-24T01:28:44.461Z,0
2018-03-24T01:29:25.221Z,0
2018-03-24T01:30:05.702Z,0
2018-03-24T01:30:46.289Z,0
2018-03-24T01:31:26.882Z,0
2018-03-24T01:32:07.517Z,0
2018-03-24T01:32:48.081Z,0
2018-03-24T01:33:28.687Z,0
2018-03-24T01:34:09.248Z,0
2018-03-24T01:34:49.826Z,0
2018-03-24T01:35:30.359Z,0
2018-03-24T01:36:10.922Z,0
2018-03-24T01:36:51.484Z,0
2018-03-24T01:37:32.039Z,0
2018-03-24T01:38:12.603Z,0
2018-03-24T01:38:53.155Z,0
2018-03-24T01:39:33.714Z,0
2018-03-24T01:40:14.267Z,0
2018-03-24T01:40:54.862Z,0
2018-03-24T01:41:35.444Z,0
2018-03-24T01:42:16.006Z,0
2018-03-24T01:42:56.552Z,0
2018-03-24T01:43:37.112Z,0
2018-03-24T01:44:17.659Z,0
2018-03-24T01:44:58.212Z,0
2018-03-24T01:45:38.767Z,0
2018-03-24T01:46:19.320Z,0
2018-03-24T01:46:59.891Z,0
2018-03-24T01:47:40.506Z,0
2018-03-24T01:48:21.061Z,0
2018-03-24T01:49:01.607Z,0
2018-03-24T01:49:42.176Z,0
2018-03-24T01:50:22.737Z,0
2018-03-24T01:51:03.312Z,0
2018-03-24T01:51:43.859Z,0
2018-03-24T01:52:24.462Z,0
2018-03-24T01:53:05.002Z,0
2018-03-24T01:53:45.579Z,0
2018-03-24T01:54:26.140Z,0
2018-03-24T01:55:06.688Z,0
2018-03-24T01:55:47.246Z,0
2018-03-24T01:56:27.813Z,0
2018-03-24T01:57:08.388Z,0
2018-03-24T01:57:48.950Z,0
2018-03-24T01:58:29.501Z,0
2018-03-24T01:59:10.062Z,0
2018-03-24T01:59:50.621Z,0
2018-03-24T02:00:31.180Z,0
2018-03-24T02:01:11.745Z,0
2018-03-24T02:01:52.302Z,0
2018-03-24T02:02:32.863Z,0
2018-03-24T02:03:13.425Z,0
2018-03-24T02:03:53.990Z,0
2018-03-24T02:04:34.542Z,0
2018-03-24T02:05:15.168Z,0
2018-03-24T02:05:55.729Z,0
2018-03-24T02:06:36.287Z,0
2018-03-24T02:07:16.990Z,0
2018-03-24T02:07:57.448Z,0
2018-03-24T02:08:38.012Z,0
2018-03-24T02:09:18.603Z,0
2018-03-24T02:09:59.179Z,0
2018-03-24T02:10:39.738Z,0
2018-03-24T02:11:20.300Z,0
2018-03-24T02:12:00.862Z,0
2018-03-24T02:12:41.427Z,0
2018-03-24T02:13:21.991Z,0
2018-03-24T02:14:02.543Z,0
2018-03-24T02:14:43.127Z,0
2018-03-24T02:15:23.719Z,0
2018-03-24T02:16:04.309Z,0
2018-03-24T02:16:44.867Z,0
2018-03-24T02:17:25.432Z,0
2018-03-24T02:18:05.990Z,0
2018-03-24T02:18:46.554Z,0
2018-03-24T02:19:27.119Z,0
2018-03-24T02:20:07.670Z,0
2018-03-24T02:20:48.297Z,0
2018-03-24T02:21:28.792Z,0
2018-03-24T02:22:09.409Z,0
2018-03-24T02:22:49.947Z,0
2018-03-24T02:23:30.513Z,0
2018-03-24T02:24:11.079Z,0
2018-03-24T02:24:51.647Z,0
2018-03-24T02:25:32.199Z,0
2018-03-24T02:26:12.753Z,0
2018-03-24T02:26:53.315Z,0
2018-03-24T02:27:33.880Z,0
2018-03-24T02:28:14.430Z,0
2018-03-24T02:28:54.986Z,0
2018-03-24T02:29:35.562Z,0
2018-03-24T02:30:16.116Z,0
2018-03-24T02:30:56.688Z,0
2018-03-24T02:31:37.246Z,0
2018-03-24T02:32:17.788Z,0
2018-03-24T02:32:58.336Z,0
2018-03-24T02:33:38.892Z,0
2018-03-24T02:34:19.450Z,0
2018-03-24T02:35:00.026Z,0
2018-03-24T02:35:40.586Z,0
2018-03-24T02:36:21.228Z,0
2018-03-24T02:37:01.792Z,0
2018-03-24T02:37:42.356Z,0
2018-03-24T02:38:22.927Z,0
2018-03-24T02:39:03.468Z,0
2018-03-24T02:39:44.039Z,0
2018-03-24T02:40:24.622Z,0
2018-03-24T02:41:05.227Z,0
2018-03-24T02:41:45.792Z,0
2018-03-24T02:42:26.362Z,0
2018-03-24T02:43:06.896Z,0
2018-03-24T02:43:47.449Z,0
2018-03-24T02:44:28.026Z,0
2018-03-24T02:45:08.575Z,0
2018-03-24T02:45:49.124Z,0
2018-03-24T02:46:29.680Z,0
2018-03-24T02:47:10.245Z,0
2018-03-24T02:47:50.798Z,0
2018-03-24T02:48:31.364Z,0
2018-03-24T02:49:11.935Z,0
2018-03-24T02:49:52.489Z,0
2018-03-24T02:50:33.058Z,0
2018-03-24T02:51:13.626Z,0
2018-03-24T02:51:54.187Z,0
2018-03-24T02:52:34.742Z,0
2018-03-24T02:53:15.329Z,0
2018-03-24T02:53:55.892Z,0
2018-03-24T02:54:36.448Z,0
2018-03-24T02:55:16.992Z,0
2018-03-24T02:55:57.551Z,0
2018-03-24T02:56:38.101Z,0
2018-03-24T02:57:18.664Z,0
2018-03-24T02:57:59.221Z,0
2018-03-24T02:58:39.763Z,0
2018-03-24T02:59:20.365Z,0
2018-03-24T03:00:00.995Z,0
2018-03-24T03:00:41.548Z,0
2018-03-24T03:01:22.143Z,0
2018-03-24T03:02:02.718Z,0
2018-03-24T03:02:43.265Z,0
2018-03-24T03:03:23.814Z,0
2018-03-24T03:04:04.383Z,0
2018-03-24T03:04:44.954Z,0
2018-03-24T03:05:25.515Z,0
2018-03-24T03:06:06.067Z,0
2018-03-24T03:06:46.616Z,0
2018-03-24T03:07:27.183Z,0
2018-03-24T03:08:07.772Z,0
2018-03-24T03:08:48.316Z,0
2018-03-24T03:09:28.879Z,0
2018-03-24T03:10:09.464Z,0
2018-03-24T03:10:50.018Z,0
2018-03-24T03:11:30.605Z,0
2018-03-24T03:12:11.173Z,0
2018-03-24T03:12:51.716Z,0
2018-03-24T03:13:32.346Z,0
2018-03-24T03:14:12.948Z,0
2018-03-24T03:14:53.516Z,0
2018-03-24T03:15:34.070Z,0
2018-03-24T03:16:14.637Z,0
2018-03-24T03:16:55.197Z,0
2018-03-24T03:17:35.775Z,0
2018-03-24T03:18:16.337Z,0
2018-03-24T03:18:56.894Z,0
2018-03-24T03:19:37.485Z,0
2018-03-24T03:20:18.060Z,0
2018-03-24T03:20:58.612Z,0
2018-03-24T03:21:39.213Z,0
2018-03-24T03:22:19.763Z,0
2018-03-24T03:23:00.323Z,0
2018-03-24T03:23:40.880Z,0
2018-03-24T03:24:21.479Z,0
2018-03-24T03:25:02.067Z,0
2018-03-24T03:25:42.643Z,0
2018-03-24T03:26:23.203Z,0
2018-03-24T03:27:03.762Z,0
2018-03-24T03:27:44.320Z,0
2018-03-24T03:28:24.871Z,0
2018-03-24T03:29:05.421Z,0
2018-03-24T03:29:45.975Z,0
2018-03-24T03:30:26.550Z,0
2018-03-24T03:31:07.106Z,0
2018-03-24T03:31:47.651Z,0
2018-03-24T03:32:28.217Z,0
2018-03-24T03:33:08.821Z,0
2018-03-24T03:33:49.454Z,0
2018-03-24T03:34:29.983Z,0
2018-03-24T03:35:10.674Z,0
2018-03-24T03:35:51.414Z,0
2018-03-24T03:36:31.824Z,0
2018-03-24T03:37:12.400Z,0
2018-03-24T03:37:52.981Z,0
2018-03-24T03:38:33.560Z,0
2018-03-24T03:39:14.089Z,0
2018-03-24T03:39:54.640Z,0
2018-03-24T03:40:35.220Z,0
2018-03-24T03:41:15.784Z,0
2018-03-24T03:41:56.428Z,0
2018-03-24T03:42:36.983Z,0
2018-03-24T03:43:17.541Z,0
2018-03-24T03:43:58.095Z,0
2018-03-24T03:44:38.665Z,0
2018-03-24T03:45:19.216Z,0
2018-03-24T03:45:59.762Z,0
2018-03-24T03:46:40.339Z,0
2018-03-24T03:47:20.874Z,0
2018-03-24T03:48:01.557Z,0
2018-03-24T03:48:42.133Z,0
2018-03-24T03:49:22.740Z,0
2018-03-24T03:50:03.288Z,0
2018-03-24T03:50:43.864Z,0
2018-03-24T03:51:24.419Z,0
2018-03-24T03:52:05.000Z,0
2018-03-24T03:52:45.574Z,0
2018-03-24T03:53:26.140Z,0
2018-03-24T03:54:06.740Z,0
2018-03-24T03:54:47.303Z,0
2018-03-24T03:55:27.850Z,0
2018-03-24T03:56:08.433Z,0
2018-03-24T03:56:48.987Z,0
2018-03-24T03:57:29.559Z,0
2018-03-24T03:58:10.116Z,0
2018-03-24T03:58:50.685Z,0
2018-03-24T03:59:31.258Z,0
2018-03-24T04:00:11.817Z,0
2018-03-24T04:00:52.430Z,0
2018-03-24T04:01:33.034Z,0
2018-03-24T04:02:13.579Z,0
2018-03-24T04:02:54.141Z,0
2018-03-24T04:03:34.735Z,0
2018-03-24T04:04:15.260Z,0
2018-03-24T04:04:55.825Z,0
2018-03-24T04:05:36.375Z,0
2018-03-24T04:06:16.936Z,0
2018-03-24T04:06:57.492Z,0
2018-03-24T04:07:38.041Z,0
2018-03-24T04:08:18.592Z,0
2018-03-24T04:08:59.153Z,0
2018-03-24T04:09:39.692Z,0
2018-03-24T04:10:20.241Z,0
2018-03-24T04:11:00.792Z,0
2018-03-24T04:11:41.444Z,0
2018-03-24T04:12:22.051Z,0
2018-03-24T04:13:02.593Z,0
2018-03-24T04:13:43.147Z,0
2018-03-24T04:14:23.701Z,0
2018-03-24T04:15:04.265Z,0
2018-03-24T04:15:44.831Z,0
2018-03-24T04:16:25.388Z,0
2018-03-24T04:17:05.960Z,0
2018-03-24T04:17:46.562Z,0
2018-03-24T04:18:27.129Z,0
2018-03-24T04:19:07.684Z,0
2018-03-24T04:19:48.255Z,0
2018-03-24T04:20:28.817Z,0
2018-03-24T04:21:09.363Z,0
2018-03-24T04:21:49.934Z,0
2018-03-24T04:22:30.490Z,0
2018-03-24T04:23:11.064Z,0
2018-03-24T04:23:51.625Z,0
2018-03-24T04:24:32.178Z,0
2018-03-24T04:25:12.733Z,0
2018-03-24T04:25:53.287Z,0
2018-03-24T04:26:33.899Z,0
2018-03-24T04:27:14.412Z,0
2018-03-24T04:27:54.971Z,0
2018-03-24T04:28:35.536Z,0
2018-03-24T04:29:16.116Z,0
2018-03-24T04:29:56.671Z,0
2018-03-24T04:30:37.234Z,0
2018-03-24T04:31:17.802Z,0
2018-03-24T04:31:58.359Z,0
2018-03-24T04:32:38.918Z,0
2018-03-24T04:33:19.474Z,0
2018-03-24T04:34:00.049Z,0
2018-03-24T04:34:40.639Z,0
2018-03-24T04:35:21.197Z,0
2018-03-24T04:36:01.754Z,0
2018-03-24T04:36:42.338Z,0
2018-03-24T04:37:22.905Z,0
2018-03-24T04:38:03.454Z,0
2018-03-24T04:38:44.007Z,0
2018-03-24T04:39:24.556Z,0
2018-03-24T04:40:05.111Z,0
2018-03-24T04:40:45.664Z,0
2018-03-24T04:41:26.290Z,0
2018-03-24T04:42:06.781Z,0
2018-03-24T04:42:47.343Z,0
2018-03-24T04:43:27.921Z,0
2018-03-24T04:44:08.665Z,0
2018-03-24T04:44:49.222Z,0
2018-03-24T04:45:29.778Z,0
2018-03-24T04:46:10.355Z,0
2018-03-24T04:46:50.965Z,0
2018-03-24T04:47:31.509Z,0
2018-03-24T04:48:12.074Z,0
2018-03-24T04:48:52.639Z,0
2018-03-24T04:49:33.180Z,0
2018-03-24T04:50:13.745Z,0
2018-03-24T04:50:54.302Z,0
2018-03-24T04:51:34.855Z,0
2018-03-24T04:52:15.411Z,0
2018-03-24T04:52:55.970Z,0
2018-03-24T04:53:36.555Z,0
2018-03-24T04:54:17.090Z,0
2018-03-24T04:54:57.646Z,0
2018-03-24T04:55:38.201Z,0
2018-03-24T04:56:18.782Z,0
2018-03-24T04:56:59.350Z,0
2018-03-24T04:57:39.904Z,0
2018-03-24T04:58:20.458Z,0
2018-03-24T04:59:01.034Z,0
2018-03-24T04:59:41.621Z,0
2018-03-24T05:00:22.170Z,0
2018-03-24T05:01:02.725Z,0
2018-03-24T05:01:43.293Z,0
2018-03-24T05:02:23.862Z,0
2018-03-24T05:03:04.422Z,0
2018-03-24T05:03:44.987Z,0
2018-03-24T05:04:25.540Z,0
2018-03-24T05:05:06.170Z,0
2018-03-24T05:05:46.738Z,0
2018-03-24T05:06:27.325Z,0
2018-03-24T05:07:07.902Z,0
2018-03-24T05:07:48.462Z,0
2018-03-24T05:08:29.016Z,0
2018-03-24T05:09:09.586Z,0
2018-03-24T05:09:50.152Z,0
2018-03-24T05:10:30.705Z,0
2018-03-24T05:11:11.283Z,0
2018-03-24T05:11:51.908Z,0
2018-03-24T05:12:32.475Z,0
2018-03-24T05:13:13.044Z,0
2018-03-24T05:13:53.601Z,0
2018-03-24T05:14:34.194Z,0
2018-03-24T05:15:14.799Z,0
2018-03-24T05:15:55.347Z,0
2018-03-24T05:16:35.912Z,0
2018-03-24T05:17:16.463Z,0
2018-03-24T05:17:57.012Z,0
2018-03-24T05:18:37.563Z,0
2018-03-24T05:19:18.119Z,0
2018-03-24T05:19:58.688Z,0
2018-03-24T05:20:39.234Z,0
2018-03-24T05:21:19.789Z,0
2018-03-24T05:22:00.344Z,0
2018-03-24T05:22:40.893Z,0
2018-03-24T05:25:14.086Z,0
2018-03-24T05:25:54.661Z,0
2018-03-24T05:26:35.227Z,0
2018-03-24T05:27:15.820Z,0
2018-03-24T05:27:56.389Z,5
2018-03-24T05:28:36.950Z,5
2018-03-24T05:29:17.550Z,5
2018-03-24T05:29:58.108Z,5
2018-03-24T05:30:38.668Z,5
2018-03-24T05:31:19.223Z,5
2018-03-24T05:31:59.776Z,5
2018-03-24T05:32:40.340Z,5
2018-03-24T05:33:20.899Z,5
2018-03-24T05:34:01.471Z,5
2018-03-24T05:34:42.042Z,5
2018-03-24T05:35:22.601Z,5
2018-03-24T05:36:03.147Z,5
2018-03-24T05:36:43.716Z,5
2018-03-24T05:37:24.254Z,5
2018-03-24T05:38:04.809Z,5
2018-03-24T05:38:45.434Z,5
2018-03-24T05:39:25.985Z,5
2018-03-24T05:40:06.730Z,5
2018-03-24T05:40:47.280Z,5
2018-03-24T05:41:27.827Z,5
2018-03-24T05:42:08.406Z,5
2018-03-24T05:42:48.980Z,5
2018-03-24T05:43:29.506Z,5
2018-03-24T05:44:10.192Z,5
2018-03-24T05:44:50.744Z,5
2018-03-24T05:45:31.305Z,5
2018-03-24T05:46:11.933Z,5
2018-03-24T05:46:52.496Z,10
2018-03-24T05:47:33.060Z,10
2018-03-24T05:48:13.626Z,10
2018-03-24T05:48:54.223Z,10
2018-03-24T05:49:34.776Z,10
2018-03-24T05:50:15.383Z,10
2018-03-24T05:50:55.945Z,10
2018-03-24T05:51:36.589Z,10
2018-03-24T05:52:17.123Z,10
2018-03-24T05:52:57.701Z,10
2018-03-24T05:53:38.359Z,10
2018-03-24T05:54:18.922Z,10
2018-03-24T05:54:59.564Z,10
2018-03-24T05:55:40.192Z,10
2018-03-24T05:58:08.280Z,10
2018-03-24T05:58:48.849Z,10
2018-03-24T05:59:29.376Z,15
2018-03-24T06:01:57.497Z,15
2018-03-24T06:02:38.075Z,15
2018-03-24T06:03:18.617Z,15
2018-03-24T06:03:59.188Z,15
2018-03-24T06:04:39.749Z,15
2018-03-24T06:05:20.285Z,15
2018-03-24T06:06:00.920Z,15
2018-03-24T06:06:41.547Z,15
2018-03-24T06:07:22.057Z,15
2018-03-24T06:08:02.630Z,15
2018-03-24T06:08:43.193Z,15
2018-03-24T06:09:23.771Z,15
2018-03-24T06:10:04.318Z,15
2018-03-24T06:10:44.889Z,15
2018-03-24T06:11:25.429Z,15
2018-03-24T06:12:06.022Z,15
2018-03-24T06:12:46.578Z,15
2018-03-24T06:13:27.158Z,20
2018-03-24T06:14:07.687Z,20
2018-03-24T06:14:48.230Z,20
2018-03-24T06:15:28.802Z,20
2018-03-24T06:16:09.367Z,20
2018-03-24T06:16:49.926Z,20
2018-03-24T06:17:30.505Z,20
2018-03-24T06:18:11.050Z,20
2018-03-24T06:18:51.616Z,20
2018-03-24T06:19:32.174Z,20
2018-03-24T06:20:12.726Z,20
2018-03-24T06:20:53.275Z,20
2018-03-24T06:21:33.837Z,20
2018-03-24T06:22:14.379Z,20
2018-03-24T06:22:54.942Z,20
2018-03-24T06:23:35.498Z,20
2018-03-24T06:24:16.061Z,20
2018-03-24T06:24:56.645Z,20
2018-03-24T06:25:37.208Z,20
2018-03-24T06:26:17.758Z,20
2018-03-24T06:26:58.322Z,20
2018-03-24T06:27:38.897Z,20
2018-03-24T06:28:19.686Z,20
2018-03-24T06:29:00.271Z,20
2018-03-24T06:29:41.429Z,20
2018-03-24T06:30:22.435Z,20
2018-03-24T06:31:03.687Z,20
2018-03-24T06:31:44.638Z,20
2018-03-24T06:32:25.745Z,20
2018-03-24T06:33:06.854Z,20
2018-03-24T06:33:48.136Z,25
2018-03-24T06:34:28.999Z,25
2018-03-24T06:35:09.552Z,25
2018-03-24T06:35:50.576Z,25
2018-03-24T06:36:31.654Z,25
2018-03-24T06:37:12.779Z,25
2018-03-24T06:37:53.749Z,25
2018-03-24T06:38:34.716Z,25
2018-03-24T06:39:15.881Z,25
2018-03-24T06:39:56.891Z,25
2018-03-24T06:40:38.467Z,25
2018-03-24T06:41:19.830Z,25
2018-03-24T06:42:00.927Z,25
2018-03-24T06:42:41.659Z,30
2018-03-24T06:43:22.217Z,30
2018-03-24T06:44:02.893Z,30
2018-03-24T06:44:43.461Z,30
2018-03-24T06:45:24.004Z,30
2018-03-24T06:46:04.751Z,30
2018-03-24T06:46:45.651Z,30
2018-03-24T06:47:26.321Z,30
2018-03-24T06:48:06.875Z,30
2018-03-24T06:48:47.676Z,30
2018-03-24T06:49:29.720Z,30
2018-03-24T06:50:10.350Z,30
2018-03-24T06:50:50.910Z,30
2018-03-24T06:51:31.464Z,30
2018-03-24T06:52:12.236Z,30
2018-03-24T06:52:52.874Z,30
2018-03-24T06:53:33.710Z,30
2018-03-24T06:54:14.266Z,30
2018-03-24T06:54:54.881Z,30
2018-03-24T06:55:35.799Z,30
2018-03-24T06:56:16.494Z,30
2018-03-24T06:56:57.078Z,30
2018-03-24T06:57:37.864Z,30
2018-03-24T06:58:18.765Z,30
2018-03-24T06:58:59.625Z,30
2018-03-24T06:59:40.490Z,30
2018-03-24T07:00:21.053Z,35
2018-03-24T07:01:01.617Z,35
2018-03-24T07:01:42.422Z,35
2018-03-24T07:02:23.182Z,35
2018-03-24T07:03:03.969Z,35
2018-03-24T07:03:44.516Z,35
2018-03-24T07:04:27.251Z,35
2018-03-24T07:05:08.057Z,35
2018-03-24T07:05:48.812Z,35
2018-03-24T07:06:29.370Z,35
2018-03-24T07:07:09.934Z,40
2018-03-24T07:07:50.703Z,40
2018-03-24T07:08:31.588Z,40
2018-03-24T07:09:13.086Z,40
2018-03-24T07:09:54.096Z,40
2018-03-24T07:10:34.647Z,40
2018-03-24T07:11:15.470Z,40
2018-03-24T07:11:56.498Z,40
2018-03-24T07:12:38.458Z,45
2018-03-24T07:13:19.840Z,45
2018-03-24T07:14:00.714Z,45
2018-03-24T07:14:41.482Z,45
2018-03-24T07:15:22.247Z,45
2018-03-24T07:16:02.801Z,45
2018-03-24T07:16:43.353Z,45
2018-03-24T07:17:24.292Z,45
2018-03-24T07:18:05.214Z,45
2018-03-24T07:18:45.877Z,45
2018-03-24T07:19:26.430Z,45
2018-03-24T07:20:07.247Z,45
2018-03-24T07:20:48.170Z,45
2018-03-24T07:21:28.852Z,45
2018-03-24T07:22:09.401Z,50
2018-03-24T07:22:49.965Z,50
2018-03-24T07:23:30.535Z,50
2018-03-24T07:24:11.228Z,50
2018-03-24T07:24:51.924Z,50
2018-03-24T07:25:32.481Z,50
2018-03-24T07:26:13.021Z,50
2018-03-24T07:26:53.962Z,50
2018-03-24T07:27:34.526Z,50
2018-03-24T07:28:15.084Z,50
2018-03-24T07:28:55.652Z,50
2018-03-24T07:29:36.535Z,50
2018-03-24T07:30:17.313Z,50
2018-03-24T07:30:57.864Z,50
2018-03-24T07:31:38.613Z,50
2018-03-24T07:32:19.351Z,50
2018-03-24T07:33:00.318Z,50
2018-03-24T07:33:41.119Z,50
2018-03-24T07:34:21.990Z,50
2018-03-24T07:35:02.784Z,50
2018-03-24T07:35:43.375Z,50
2018-03-24T07:36:23.943Z,50
2018-03-24T07:37:04.620Z,50
2018-03-24T07:37:45.360Z,55
2018-03-24T07:38:25.929Z,55
2018-03-24T07:39:06.487Z,55
2018-03-24T07:39:47.174Z,55
2018-03-24T07:40:27.858Z,55
2018-03-24T07:41:08.562Z,55
2018-03-24T07:41:49.469Z,55
2018-03-24T07:42:30.363Z,55
2018-03-24T07:43:10.914Z,55
2018-03-24T07:43:51.803Z,60
2018-03-24T07:44:32.372Z,60
2018-03-24T07:45:12.934Z,60
2018-03-24T07:45:53.535Z,60
2018-03-24T07:46:34.252Z,60
2018-03-24T07:47:14.796Z,60
2018-03-24T07:47:55.458Z,60
2018-03-24T07:48:36.074Z,60
2018-03-24T07:49:16.756Z,60
2018-03-24T07:49:57.707Z,60
2018-03-24T07:50:38.372Z,60
2018-03-24T07:51:18.931Z,60
2018-03-24T07:51:59.521Z,60
2018-03-24T07:52:40.082Z,60
2018-03-24T07:53:20.633Z,60
2018-03-24T07:54:01.198Z,60
2018-03-24T07:54:41.751Z,60
2018-03-24T07:55:22.298Z,60
2018-03-24T07:56:02.860Z,60
2018-03-24T07:56:43.394Z,60
2018-03-24T07:57:23.967Z,60
2018-03-24T07:58:04.535Z,60
2018-03-24T07:58:45.111Z,60
2018-03-24T07:59:25.789Z,60
2018-03-24T08:00:06.328Z,60
2018-03-24T08:00:46.895Z,60
2018-03-24T08:01:27.459Z,60
2018-03-24T08:02:08.000Z,60
2018-03-24T08:02:48.534Z,60
2018-03-24T08:03:29.099Z,60
2018-03-24T08:04:09.682Z,60
2018-03-24T08:04:50.187Z,60
2018-03-24T08:05:30.830Z,60
2018-03-24T08:06:11.423Z,60
2018-03-24T08:06:51.985Z,60
2018-03-24T08:07:32.586Z,60
2018-03-24T08:08:13.133Z,60
2018-03-24T08:08:53.684Z,60
2018-03-24T08:09:34.265Z,60
2018-03-24T08:10:14.883Z,60
2018-03-24T08:10:55.446Z,60
2018-03-24T08:11:35.997Z,60
2018-03-24T08:12:16.543Z,60
2018-03-24T08:12:57.112Z,60
2018-03-24T08:13:37.745Z,65
2018-03-24T08:14:18.602Z,65
2018-03-24T08:14:59.409Z,65
2018-03-24T08:15:40.026Z,65
2018-03-24T08:16:20.971Z,65
2018-03-24T08:17:01.755Z,70
2018-03-24T08:17:42.554Z,70
2018-03-24T08:18:23.446Z,70
2018-03-24T08:19:04.202Z,70
2018-03-24T08:19:44.841Z,70
2018-03-24T08:20:25.685Z,75
2018-03-24T08:21:06.273Z,75
2018-03-24T08:21:47.025Z,75
2018-03-24T08:22:27.714Z,75
2018-03-24T08:23:08.696Z,75
2018-03-24T08:23:49.509Z,70
2018-03-24T08:24:30.281Z,70
2018-03-24T08:25:10.904Z,70
2018-03-24T08:25:52.523Z,70
2018-03-24T08:26:33.113Z,70
2018-03-24T08:27:13.668Z,70
2018-03-24T08:27:54.247Z,70
2018-03-24T08:28:34.802Z,70
2018-03-24T08:29:15.345Z,70
2018-03-24T08:29:55.904Z,70
2018-03-24T08:30:36.459Z,70
2018-03-24T08:31:17.041Z,75
2018-03-24T08:31:57.673Z,75
2018-03-24T08:32:38.224Z,75
2018-03-24T08:33:19.042Z,75
2018-03-24T08:33:59.606Z,75
2018-03-24T08:34:40.163Z,75
2018-03-24T08:35:20.723Z,75
2018-03-24T08:36:01.340Z,80
2018-03-24T08:36:41.821Z,80
2018-03-24T08:37:22.404Z,80
2018-03-24T08:38:02.963Z,80
2018-03-24T08:38:43.524Z,80
2018-03-24T08:39:24.100Z,80
2018-03-24T08:40:04.658Z,80
2018-03-24T08:40:45.213Z,80
2018-03-24T08:41:25.759Z,80
2018-03-24T08:42:06.308Z,80
2018-03-24T08:42:46.860Z,75
2018-03-24T08:43:27.418Z,75
2018-03-24T08:44:07.982Z,75
2018-03-24T08:44:48.546Z,75
2018-03-24T08:45:29.084Z,75
2018-03-24T08:46:09.657Z,75
2018-03-24T08:46:50.216Z,75
2018-03-24T08:47:30.777Z,75
2018-03-24T08:48:11.328Z,70
2018-03-24T08:48:51.889Z,70
2018-03-24T08:49:32.443Z,70
2018-03-24T08:50:13.023Z,70
2018-03-24T08:50:53.579Z,75
2018-03-24T08:51:34.140Z,75
2018-03-24T08:52:14.736Z,75
2018-03-24T08:52:55.278Z,75
2018-03-24T08:53:35.838Z,75
2018-03-24T08:54:17.261Z,80
2018-03-24T08:54:58.319Z,80
2018-03-24T08:55:39.276Z,80
2018-03-24T08:56:19.832Z,80
2018-03-24T08:57:00.565Z,80
2018-03-24T08:57:41.326Z,85
2018-03-24T08:58:22.087Z,85
2018-03-24T08:59:02.786Z,85
2018-03-24T08:59:43.658Z,85
2018-03-24T09:00:24.436Z,85
2018-03-24T09:01:05.089Z,90
2018-03-24T09:01:45.641Z,90
2018-03-24T09:02:26.201Z,90
2018-03-24T09:03:06.778Z,90
2018-03-24T09:03:47.596Z,90
2018-03-24T09:04:28.527Z,90
2018-03-24T09:05:09.186Z,90
2018-03-24T09:05:49.914Z,90
2018-03-24T09:06:30.648Z,95
2018-03-24T09:07:11.416Z,95
2018-03-24T09:07:52.459Z,100
2018-03-24T09:08:33.238Z,100
2018-03-24T09:09:13.857Z,100
2018-03-24T09:09:54.758Z,100
2018-03-24T09:10:35.441Z,105
2018-03-24T09:11:16.168Z,105
2018-03-24T09:11:56.744Z,105
2018-03-24T09:12:37.298Z,105
2018-03-24T09:13:18.044Z,110
2018-03-24T09:13:58.964Z,105
2018-03-24T09:14:39.624Z,105
2018-03-24T09:15:20.368Z,105
2018-03-24T09:16:01.128Z,105
2018-03-24T09:16:42.004Z,105
2018-03-24T09:17:23.040Z,105
2018-03-24T09:18:03.653Z,105
2018-03-24T09:18:44.215Z,105
2018-03-24T09:19:24.839Z,105
2018-03-24T09:20:05.530Z,105
2018-03-24T09:20:46.173Z,110
2018-03-24T09:21:26.756Z,110
2018-03-24T09:22:07.386Z,110
2018-03-24T09:22:47.881Z,110
2018-03-24T09:23:29.119Z,115
2018-03-24T09:24:09.785Z,115
2018-03-24T09:24:50.337Z,115
2018-03-24T09:25:30.883Z,115
2018-03-24T09:26:11.455Z,115
2018-03-24T09:26:51.992Z,115
2018-03-24T09:27:32.636Z,115
2018-03-24T09:28:13.192Z,115
2018-03-24T09:28:53.743Z,115
2018-03-24T09:29:34.307Z,115
2018-03-24T09:30:15.560Z,110
2018-03-24T09:30:56.099Z,110
2018-03-24T09:31:36.678Z,110
2018-03-24T09:32:17.396Z,110
2018-03-24T09:32:58.304Z,110
2018-03-24T09:33:38.907Z,110
2018-03-24T09:34:19.733Z,115
2018-03-24T09:35:00.548Z,115
2018-03-24T09:35:41.112Z,115
2018-03-24T09:36:21.662Z,115
2018-03-24T09:37:02.692Z,115
2018-03-24T09:37:43.983Z,115
2018-03-24T09:38:24.545Z,115
2018-03-24T09:39:05.337Z,115
2018-03-24T09:39:45.994Z,115
2018-03-24T09:40:26.892Z,115
2018-03-24T09:41:08.224Z,115
2018-03-24T09:41:49.094Z,115
2018-03-24T09:42:29.883Z,115
2018-03-24T09:43:11.266Z,115
2018-03-24T09:43:52.244Z,115
2018-03-24T09:44:34.802Z,115
2018-03-24T09:45:15.914Z,115
2018-03-24T09:45:56.592Z,115
2018-03-24T09:46:37.489Z,115
2018-03-24T09:47:18.804Z,120
2018-03-24T09:47:59.447Z,120
2018-03-24T09:48:40.179Z,120
2018-03-24T09:49:20.985Z,120
2018-03-24T09:50:01.923Z,120
2018-03-24T09:50:42.753Z,120
2018-03-24T09:51:23.512Z,120
2018-03-24T09:52:04.313Z,120
2018-03-24T09:52:45.110Z,120
2018-03-24T09:53:25.690Z,125
2018-03-24T09:54:06.745Z,125
2018-03-24T09:54:47.387Z,125
2018-03-24T09:55:28.136Z,125
2018-03-24T09:56:08.606Z,125
2018-03-24T09:56:49.173Z,125
2018-03-24T09:57:29.735Z,125